sensor_id;sensor_type;location;lat;lon;timestamp;pressure;altitude;pressure_sealevel;temperature;humidity
7337;BME280;54510;42.016;23.098;2023-01-09T00:00:47;-21202.53;;;2.48;74.67
7337;BME280;54510;42.016;23.098;2023-01-09T00:03:12;-21211.50;;;2.81;73.09
7337;BME280;54510;42.016;23.098;2023-01-09T00:05:38;-21209.28;;;2.72;73.38
7337;BME280;54510;42.016;23.098;2023-01-09T00:08:03;-21209.13;;;2.72;73.92
7337;BME280;54510;42.016;23.098;2023-01-09T00:10:29;-21208.44;;;2.69;73.36
7337;BME280;54510;42.016;23.098;2023-01-09T00:12:54;-21208.84;;;2.71;73.24
7337;BME280;54510;42.016;23.098;2023-01-09T00:15:20;-21213.47;;;2.88;73.43
7337;BME280;54510;42.016;23.098;2023-01-09T00:17:45;-21216.84;;;3.00;73.35
7337;BME280;54510;42.016;23.098;2023-01-09T00:20:12;-21221.88;;;3.18;72.95
7337;BME280;54510;42.016;23.098;2023-01-09T00:22:38;-21221.03;;;3.15;72.36
7337;BME280;54510;42.016;23.098;2023-01-09T00:25:04;-21217.53;;;3.02;72.96
7337;BME280;54510;42.016;23.098;2023-01-09T00:27:31;-21219.50;;;3.09;73.32
7337;BME280;54510;42.016;23.098;2023-01-09T00:29:57;-21221.59;;;3.17;73.06
7337;BME280;54510;42.016;23.098;2023-01-09T00:32:23;-21221.31;;;3.16;72.43
7337;BME280;54510;42.016;23.098;2023-01-09T00:34:48;-21224.38;;;3.27;72.51
7337;BME280;54510;42.016;23.098;2023-01-09T00:37:14;-21227.19;;;3.37;71.91
7337;BME280;54510;42.016;23.098;2023-01-09T00:39:40;-21225.78;;;3.32;71.46
7337;BME280;54510;42.016;23.098;2023-01-09T00:42:12;-21225.66;;;3.32;71.72
7337;BME280;54510;42.016;23.098;2023-01-09T00:44:42;-21224.09;;;3.26;71.45
7337;BME280;54510;42.016;23.098;2023-01-09T00:47:15;-21222.56;;;3.21;71.91
7337;BME280;54510;42.016;23.098;2023-01-09T00:49:44;-21221.72;;;3.17;71.45
7337;BME280;54510;42.016;23.098;2023-01-09T00:52:12;-21215.44;;;2.95;71.79
7337;BME280;54510;42.016;23.098;2023-01-09T00:54:39;-21218.38;;;3.05;71.80
7337;BME280;54510;42.016;23.098;2023-01-09T00:57:05;-21218.22;;;3.05;72.11
7337;BME280;54510;42.016;23.098;2023-01-09T00:59:31;-21216.00;;;2.97;71.70
7337;BME280;54510;42.016;23.098;2023-01-09T01:01:58;-21210.38;;;2.76;72.68
7337;BME280;54510;42.016;23.098;2023-01-09T01:04:23;-21213.59;;;2.88;72.80
7337;BME280;54510;42.016;23.098;2023-01-09T01:07:07;-21217.81;;;3.03;72.19
7337;BME280;54510;42.016;23.098;2023-01-09T01:09:51;-21217.94;;;3.04;72.42
7337;BME280;54510;42.016;23.098;2023-01-09T01:12:17;-21220.47;;;3.13;71.48
7337;BME280;54510;42.016;23.098;2023-01-09T01:14:42;-21218.22;;;3.05;71.83
7337;BME280;54510;42.016;23.098;2023-01-09T01:17:07;-21216.84;;;3.00;71.79
7337;BME280;54510;42.016;23.098;2023-01-09T01:19:34;-21216.69;;;2.99;71.29
7337;BME280;54510;42.016;23.098;2023-01-09T01:21:59;-21217.53;;;3.02;71.39
7337;BME280;54510;42.016;23.098;2023-01-09T01:24:25;-21217.25;;;3.01;71.22
7337;BME280;54510;42.016;23.098;2023-01-09T01:26:50;-21214.72;;;2.92;70.86
7337;BME280;54510;42.016;23.098;2023-01-09T01:29:15;-21214.59;;;2.92;70.89
7337;BME280;54510;42.016;23.098;2023-01-09T01:31:41;-21217.38;;;3.02;71.13
7337;BME280;54510;42.016;23.098;2023-01-09T01:34:06;-21216.13;;;2.97;70.63
7337;BME280;54510;42.016;23.098;2023-01-09T01:36:32;-21217.94;;;3.04;70.44
7337;BME280;54510;42.016;23.098;2023-01-09T01:38:58;-21218.22;;;3.05;70.61
7337;BME280;54510;42.016;23.098;2023-01-09T01:41:23;-21213.31;;;2.87;71.03
7337;BME280;54510;42.016;23.098;2023-01-09T01:43:57;-21214.59;;;2.92;71.20
7337;BME280;54510;42.016;23.098;2023-01-09T01:46:23;-21214.31;;;2.91;71.13
7337;BME280;54510;42.016;23.098;2023-01-09T01:48:53;-21214.31;;;2.91;71.51
7337;BME280;54510;42.016;23.098;2023-01-09T01:51:21;-21213.88;;;2.89;71.58
7337;BME280;54510;42.016;23.098;2023-01-09T01:53:52;-21216.69;;;2.99;71.11
7337;BME280;54510;42.016;23.098;2023-01-09T01:56:25;-21215.84;;;2.96;70.85
7337;BME280;54510;42.016;23.098;2023-01-09T01:59:25;-21209.00;;;2.71;71.30
7337;BME280;54510;42.016;23.098;2023-01-09T02:01:47;-21207.31;;;2.65;72.14
7337;BME280;54510;42.016;23.098;2023-01-09T02:04:13;-21207.59;;;2.66;72.24
7337;BME280;54510;42.016;23.098;2023-01-09T02:06:39;-21208.84;;;2.71;71.98
7337;BME280;54510;42.016;23.098;2023-01-09T02:09:06;-21211.66;;;2.81;72.14
7337;BME280;54510;42.016;23.098;2023-01-09T02:11:31;-21211.94;;;2.82;71.48
7337;BME280;54510;42.016;23.098;2023-01-09T02:13:57;-21208.44;;;2.69;71.98
7337;BME280;54510;42.016;23.098;2023-01-09T02:16:53;-21206.03;;;2.61;72.49
7337;BME280;54510;42.016;23.098;2023-01-09T02:28:30;-21206.47;;;2.62;72.40
7337;BME280;54510;42.016;23.098;2023-01-09T02:31:14;-21207.03;;;2.64;72.25
7337;BME280;54510;42.016;23.098;2023-01-09T02:33:59;-21204.38;;;2.55;72.31
7337;BME280;54510;42.016;23.098;2023-01-09T02:36:30;-21211.50;;;2.81;71.83
7337;BME280;54510;42.016;23.098;2023-01-09T02:39:04;-21206.88;;;2.64;71.78
7337;BME280;54510;42.016;23.098;2023-01-09T02:41:39;-21208.72;;;2.70;72.10
7337;BME280;54510;42.016;23.098;2023-01-09T02:46:41;-21198.06;;;2.32;72.34
7337;BME280;54510;42.016;23.098;2023-01-09T02:49:07;-21202.97;;;2.50;71.57
7337;BME280;54510;42.016;23.098;2023-01-09T02:51:37;-21198.06;;;2.32;71.95
7337;BME280;54510;42.016;23.098;2023-01-09T03:00:07;-21198.47;;;2.33;71.93
7337;BME280;54510;42.016;23.098;2023-01-09T03:05:19;-21188.66;;;1.98;72.33
7337;BME280;54510;42.016;23.098;2023-01-09T03:07:59;-21186.84;;;1.91;72.72
7337;BME280;54510;42.016;23.098;2023-01-09T03:10:39;-21188.25;;;1.96;72.50
7337;BME280;54510;42.016;23.098;2023-01-09T03:13:09;-21187.13;;;1.92;72.30
7337;BME280;54510;42.016;23.098;2023-01-09T03:15:37;-21187.13;;;1.92;72.31
7337;BME280;54510;42.016;23.098;2023-01-09T03:18:07;-21186.44;;;1.90;72.21
7337;BME280;54510;42.016;23.098;2023-01-09T03:20:35;-21178.72;;;1.62;73.49
7337;BME280;54510;42.016;23.098;2023-01-09T03:23:04;-21183.75;;;1.80;73.15
7337;BME280;54510;42.016;23.098;2023-01-09T03:25:30;-21185.03;;;1.85;72.97
7337;BME280;54510;42.016;23.098;2023-01-09T03:28:04;-21185.03;;;1.85;73.15
7337;BME280;54510;42.016;23.098;2023-01-09T03:30:31;-21185.59;;;1.87;72.96
7337;BME280;54510;42.016;23.098;2023-01-09T03:32:57;-21184.88;;;1.84;72.95
7337;BME280;54510;42.016;23.098;2023-01-09T03:35:23;-21186.00;;;1.88;73.05
7337;BME280;54510;42.016;23.098;2023-01-09T03:37:49;-21189.94;;;2.03;73.68
7337;BME280;54510;42.016;23.098;2023-01-09T03:40:17;-21186.28;;;1.89;72.91
7337;BME280;54510;42.016;23.098;2023-01-09T03:42:42;-21183.47;;;1.79;73.51
7337;BME280;54510;42.016;23.098;2023-01-09T03:45:08;-21179.00;;;1.63;73.32
7337;BME280;54510;42.016;23.098;2023-01-09T03:47:33;-21178.44;;;1.61;73.09
7337;BME280;54510;42.016;23.098;2023-01-09T03:49:59;-21175.91;;;1.52;72.92
7337;BME280;54510;42.016;23.098;2023-01-09T03:52:24;-21175.63;;;1.51;72.87
7337;BME280;54510;42.016;23.098;2023-01-09T03:54:50;-21172.84;;;1.41;73.40
7337;BME280;54510;42.016;23.098;2023-01-09T03:57:15;-21177.47;;;1.57;72.72
7337;BME280;54510;42.016;23.098;2023-01-09T03:59:40;-21172.00;;;1.38;72.98
7337;BME280;54510;42.016;23.098;2023-01-09T04:02:06;-21164.28;;;1.10;73.38
7337;BME280;54510;42.016;23.098;2023-01-09T04:04:31;-21169.03;;;1.27;73.26
7337;BME280;54510;42.016;23.098;2023-01-09T04:06:57;-21165.69;;;1.15;73.44
7337;BME280;54510;42.016;23.098;2023-01-09T04:09:22;-21168.06;;;1.24;73.67
7337;BME280;54510;42.016;23.098;2023-01-09T04:11:48;-21170.72;;;1.33;73.03
7337;BME280;54510;42.016;23.098;2023-01-09T04:14:13;-21174.78;;;1.48;72.48
7337;BME280;54510;42.016;23.098;2023-01-09T04:16:38;-21169.88;;;1.30;72.51
7337;BME280;54510;42.016;23.098;2023-01-09T04:19:04;-21164.13;;;1.09;72.75
7337;BME280;54510;42.016;23.098;2023-01-09T04:21:29;-21164.69;;;1.11;73.04
7337;BME280;54510;42.016;23.098;2023-01-09T04:23:55;-21163.56;;;1.07;73.24
7337;BME280;54510;42.016;23.098;2023-01-09T04:26:20;-21162.72;;;1.04;72.99
7337;BME280;54510;42.016;23.098;2023-01-09T04:28:46;-21156.84;;;0.83;73.78
7337;BME280;54510;42.016;23.098;2023-01-09T04:31:12;-21157.13;;;0.84;73.80
7337;BME280;54510;42.016;23.098;2023-01-09T04:33:37;-21160.22;;;0.95;73.85
7337;BME280;54510;42.016;23.098;2023-01-09T04:36:03;-21164.41;;;1.10;73.51
7337;BME280;54510;42.016;23.098;2023-01-09T04:38:29;-21162.72;;;1.04;73.34
7337;BME280;54510;42.016;23.098;2023-01-09T04:40:54;-21170.44;;;1.32;72.87
7337;BME280;54510;42.016;23.098;2023-01-09T04:43:19;-21173.94;;;1.45;72.51
7337;BME280;54510;42.016;23.098;2023-01-09T04:45:45;-21173.81;;;1.44;72.30
7337;BME280;54510;42.016;23.098;2023-01-09T04:48:10;-21176.63;;;1.54;72.37
7337;BME280;54510;42.016;23.098;2023-01-09T04:50:36;-21173.94;;;1.45;72.25
7337;BME280;54510;42.016;23.098;2023-01-09T04:53:01;-21176.91;;;1.55;72.35
7337;BME280;54510;42.016;23.098;2023-01-09T04:55:27;-21176.19;;;1.53;72.42
7337;BME280;54510;42.016;23.098;2023-01-09T04:57:52;-21177.47;;;1.57;72.18
7337;BME280;54510;42.016;23.098;2023-01-09T05:00:18;-21176.63;;;1.54;72.42
7337;BME280;54510;42.016;23.098;2023-01-09T05:02:43;-21176.63;;;1.54;72.61
7337;BME280;54510;42.016;23.098;2023-01-09T05:05:09;-21177.31;;;1.57;72.64
7337;BME280;54510;42.016;23.098;2023-01-09T05:07:35;-21180.41;;;1.68;71.61
7337;BME280;54510;42.016;23.098;2023-01-09T05:10:02;-21175.63;;;1.51;72.38
7337;BME280;54510;42.016;23.098;2023-01-09T05:12:28;-21169.19;;;1.28;72.66
7337;BME280;54510;42.016;23.098;2023-01-09T05:14:54;-21168.06;;;1.24;72.85
7337;BME280;54510;42.016;23.098;2023-01-09T05:17:19;-21171.00;;;1.34;72.59
7337;BME280;54510;42.016;23.098;2023-01-09T05:19:45;-21177.03;;;1.56;72.19
7337;BME280;54510;42.016;23.098;2023-01-09T05:22:13;-21178.72;;;1.62;71.30
7337;BME280;54510;42.016;23.098;2023-01-09T05:24:39;-21180.41;;;1.68;71.14
7337;BME280;54510;42.016;23.098;2023-01-09T05:27:04;-21175.63;;;1.51;71.59
7337;BME280;54510;42.016;23.098;2023-01-09T05:29:30;-21171.84;;;1.37;71.67
7337;BME280;54510;42.016;23.098;2023-01-09T05:31:55;-21170.31;;;1.32;72.45
7337;BME280;54510;42.016;23.098;2023-01-09T05:34:21;-21168.06;;;1.24;72.77
7337;BME280;54510;42.016;23.098;2023-01-09T05:36:47;-21167.38;;;1.21;72.87
7337;BME280;54510;42.016;23.098;2023-01-09T05:39:12;-21162.88;;;1.05;73.46
7337;BME280;54510;42.016;23.098;2023-01-09T05:41:38;-21164.41;;;1.10;73.77
7337;BME280;54510;42.016;23.098;2023-01-09T05:44:03;-21163.84;;;1.08;73.27
7337;BME280;54510;42.016;23.098;2023-01-09T05:46:29;-21161.31;;;0.99;73.40
7337;BME280;54510;42.016;23.098;2023-01-09T05:48:55;-21155.44;;;0.78;74.91
7337;BME280;54510;42.016;23.098;2023-01-09T05:51:20;-21155.72;;;0.79;75.17
7337;BME280;54510;42.016;23.098;2023-01-09T05:53:46;-21158.09;;;0.88;75.76
7337;BME280;54510;42.016;23.098;2023-01-09T05:56:11;-21158.53;;;0.89;75.33
7337;BME280;54510;42.016;23.098;2023-01-09T05:58:37;-21160.47;;;0.96;75.59
7337;BME280;54510;42.016;23.098;2023-01-09T06:01:02;-21166.94;;;1.19;75.35
7337;BME280;54510;42.016;23.098;2023-01-09T06:03:27;-21171.56;;;1.36;74.47
7337;BME280;54510;42.016;23.098;2023-01-09T06:05:53;-21174.22;;;1.46;74.15
7337;BME280;54510;42.016;23.098;2023-01-09T06:08:18;-21177.03;;;1.56;73.68
7337;BME280;54510;42.016;23.098;2023-01-09T06:10:44;-21182.22;;;1.75;73.22
7337;BME280;54510;42.016;23.098;2023-01-09T06:13:10;-21185.31;;;1.86;72.90
7337;BME280;54510;42.016;23.098;2023-01-09T06:15:36;-21183.75;;;1.80;73.07
7337;BME280;54510;42.016;23.098;2023-01-09T06:18:01;-21187.97;;;1.95;73.11
7337;BME280;54510;42.016;23.098;2023-01-09T06:20:26;-21189.78;;;2.02;72.55
7337;BME280;54510;42.016;23.098;2023-01-09T06:22:52;-21186.28;;;1.89;72.84
7337;BME280;54510;42.016;23.098;2023-01-09T06:25:17;-21188.41;;;1.97;72.52
7337;BME280;54510;42.016;23.098;2023-01-09T06:27:43;-21191.06;;;2.07;71.92
7337;BME280;54510;42.016;23.098;2023-01-09T06:30:09;-21195.25;;;2.22;71.69
7337;BME280;54510;42.016;23.098;2023-01-09T06:32:34;-21196.66;;;2.27;71.26
7337;BME280;54510;42.016;23.098;2023-01-09T06:35:00;-21198.47;;;2.33;70.75
7337;BME280;54510;42.016;23.098;2023-01-09T06:37:25;-21196.25;;;2.25;70.60
7337;BME280;54510;42.016;23.098;2023-01-09T06:39:50;-21193.28;;;2.15;70.54
7337;BME280;54510;42.016;23.098;2023-01-09T06:42:18;-21190.22;;;2.04;70.29
7337;BME280;54510;42.016;23.098;2023-01-09T06:44:43;-21195.81;;;2.24;69.78
7337;BME280;54510;42.016;23.098;2023-01-09T06:47:09;-21194.69;;;2.20;69.55
7337;BME280;54510;42.016;23.098;2023-01-09T06:49:34;-21191.47;;;2.08;68.30
7337;BME280;54510;42.016;23.098;2023-01-09T06:52:00;-21190.50;;;2.05;69.15
7337;BME280;54510;42.016;23.098;2023-01-09T06:54:29;-21191.19;;;2.07;68.93
7337;BME280;54510;42.016;23.098;2023-01-09T06:56:55;-21194.41;;;2.19;68.84
7337;BME280;54510;42.016;23.098;2023-01-09T06:59:20;-21197.22;;;2.29;69.27
7337;BME280;54510;42.016;23.098;2023-01-09T07:01:46;-21205.34;;;2.58;68.27
7337;BME280;54510;42.016;23.098;2023-01-09T07:04:11;-21208.84;;;2.71;68.01
7337;BME280;54510;42.016;23.098;2023-01-09T07:06:37;-21212.06;;;2.83;67.72
7337;BME280;54510;42.016;23.098;2023-01-09T07:09:03;-21207.88;;;2.67;68.67
7337;BME280;54510;42.016;23.098;2023-01-09T07:11:30;-21214.59;;;2.92;67.77
7337;BME280;54510;42.016;23.098;2023-01-09T07:13:55;-21214.03;;;2.90;68.21
7337;BME280;54510;42.016;23.098;2023-01-09T07:16:21;-21211.78;;;2.82;68.46
7337;BME280;54510;42.016;23.098;2023-01-09T07:18:46;-21217.66;;;3.03;68.35
7337;BME280;54510;42.016;23.098;2023-01-09T07:21:11;-21224.09;;;3.26;68.17
7337;BME280;54510;42.016;23.098;2023-01-09T07:23:37;-21224.66;;;3.28;67.70
7337;BME280;54510;42.016;23.098;2023-01-09T07:26:02;-21227.19;;;3.37;67.00
7337;BME280;54510;42.016;23.098;2023-01-09T07:28:28;-21230.00;;;3.47;67.78
7337;BME280;54510;42.016;23.098;2023-01-09T07:30:53;-21231.66;;;3.53;67.39
7337;BME280;54510;42.016;23.098;2023-01-09T07:33:19;-21234.88;;;3.65;66.99
7337;BME280;54510;42.016;23.098;2023-01-09T07:35:44;-21239.50;;;3.82;66.31
7337;BME280;54510;42.016;23.098;2023-01-09T07:38:10;-21242.16;;;3.91;66.29
7337;BME280;54510;42.016;23.098;2023-01-09T07:40:35;-21246.63;;;4.08;66.08
7337;BME280;54510;42.016;23.098;2023-01-09T07:43:00;-21247.31;;;4.10;66.18
7337;BME280;54510;42.016;23.098;2023-01-09T07:45:26;-21247.88;;;4.12;65.74
7337;BME280;54510;42.016;23.098;2023-01-09T07:47:51;-21251.94;;;4.27;66.40
7337;BME280;54510;42.016;23.098;2023-01-09T07:50:18;-21251.81;;;4.26;66.74
7337;BME280;54510;42.016;23.098;2023-01-09T07:52:44;-21259.91;;;4.56;65.89
7337;BME280;54510;42.016;23.098;2023-01-09T07:55:10;-21266.34;;;4.79;65.75
7337;BME280;54510;42.016;23.098;2023-01-09T07:57:36;-21269.41;;;4.90;65.01
7337;BME280;54510;42.016;23.098;2023-01-09T08:00:02;-21275.69;;;5.13;64.84
7337;BME280;54510;42.016;23.098;2023-01-09T08:02:31;-21278.63;;;5.24;64.30
7337;BME280;54510;42.016;23.098;2023-01-09T08:04:56;-21279.75;;;5.28;63.92
7337;BME280;54510;42.016;23.098;2023-01-09T08:07:22;-21280.44;;;5.30;63.26
7337;BME280;54510;42.016;23.098;2023-01-09T08:09:47;-21278.06;;;5.22;62.53
7337;BME280;54510;42.016;23.098;2023-01-09T08:12:12;-21281.56;;;5.34;62.47
7337;BME280;54510;42.016;23.098;2023-01-09T08:14:38;-21283.81;;;5.42;62.39
7337;BME280;54510;42.016;23.098;2023-01-09T08:17:03;-21285.63;;;5.49;62.25
7337;BME280;54510;42.016;23.098;2023-01-09T08:19:29;-21284.91;;;5.46;62.26
7337;BME280;54510;42.016;23.098;2023-01-09T08:21:54;-21285.63;;;5.49;61.93
7337;BME280;54510;42.016;23.098;2023-01-09T08:24:19;-21289.81;;;5.64;62.03
7337;BME280;54510;42.016;23.098;2023-01-09T08:26:45;-21293.44;;;5.77;62.44
7337;BME280;54510;42.016;23.098;2023-01-09T08:29:10;-21290.38;;;5.66;62.46
7337;BME280;54510;42.016;23.098;2023-01-09T08:31:36;-21293.72;;;5.78;62.21
7337;BME280;54510;42.016;23.098;2023-01-09T08:34:01;-21295.94;;;5.86;61.90
7337;BME280;54510;42.016;23.098;2023-01-09T08:36:26;-21291.63;;;5.71;62.63
7337;BME280;54510;42.016;23.098;2023-01-09T08:38:52;-21296.50;;;5.88;62.11
7337;BME280;54510;42.016;23.098;2023-01-09T08:41:17;-21300.00;;;6.01;62.08
7337;BME280;54510;42.016;23.098;2023-01-09T08:44:01;-21308.78;;;6.33;61.65
7337;BME280;54510;42.016;23.098;2023-01-09T08:46:46;-21318.13;;;6.67;60.88
7337;BME280;54510;42.016;23.098;2023-01-09T08:49:29;-21322.72;;;6.84;60.62
7337;BME280;54510;42.016;23.098;2023-01-09T08:51:55;-21327.47;;;7.01;60.47
7337;BME280;54510;42.016;23.098;2023-01-09T08:54:20;-21332.22;;;7.18;60.36
7337;BME280;54510;42.016;23.098;2023-01-09T08:56:46;-21338.34;;;7.40;59.92
7337;BME280;54510;42.016;23.098;2023-01-09T08:59:11;-21340.16;;;7.47;59.88
7337;BME280;54510;42.016;23.098;2023-01-09T09:01:37;-21346.72;;;7.71;59.61
7337;BME280;54510;42.016;23.098;2023-01-09T09:04:02;-21348.53;;;7.77;59.55
7337;BME280;54510;42.016;23.098;2023-01-09T09:06:30;-21346.84;;;7.71;59.63
7337;BME280;54510;42.016;23.098;2023-01-09T09:08:55;-21345.44;;;7.66;59.85
7337;BME280;54510;42.016;23.098;2023-01-09T09:11:20;-21345.31;;;7.66;60.54
7337;BME280;54510;42.016;23.098;2023-01-09T09:13:46;-21352.84;;;7.93;60.31
7337;BME280;54510;42.016;23.098;2023-01-09T09:16:11;-21351.31;;;7.87;61.09
7337;BME280;54510;42.016;23.098;2023-01-09T09:18:37;-21357.44;;;8.10;60.89
7337;BME280;54510;42.016;23.098;2023-01-09T09:21:02;-21364.53;;;8.36;60.88
7337;BME280;54510;42.016;23.098;2023-01-09T09:23:28;-21369.00;;;8.52;60.30
7337;BME280;54510;42.016;23.098;2023-01-09T09:25:53;-21374.84;;;8.73;59.93
7337;BME280;54510;42.016;23.098;2023-01-09T09:28:18;-21378.03;;;8.85;59.39
7337;BME280;54510;42.016;23.098;2023-01-09T09:30:44;-21380.94;;;8.95;59.70
7337;BME280;54510;42.016;23.098;2023-01-09T09:33:09;-21386.66;;;9.16;59.54
7337;BME280;54510;42.016;23.098;2023-01-09T09:35:35;-21392.63;;;9.38;59.53
7337;BME280;54510;42.016;23.098;2023-01-09T09:38:02;-21399.84;;;9.64;59.90
7337;BME280;54510;42.016;23.098;2023-01-09T09:46:31;-21419.59;;;10.36;60.71
7337;BME280;54510;42.016;23.098;2023-01-09T09:49:06;-21427.09;;;10.63;60.62
7337;BME280;54510;42.016;23.098;2023-01-09T09:51:59;-21449.28;;;11.44;60.31
7337;BME280;54510;42.016;23.098;2023-01-09T09:54:32;-21456.78;;;11.72;59.37
7337;BME280;54510;42.016;23.098;2023-01-09T09:57:01;-21456.63;;;11.71;59.75
7337;BME280;54510;42.016;23.098;2023-01-09T09:59:38;-21458.03;;;11.76;58.91
7337;BME280;54510;42.016;23.098;2023-01-09T10:02:24;-21462.88;;;11.94;58.96
7337;BME280;54510;42.016;23.098;2023-01-09T10:04:58;-21466.47;;;12.07;58.42
7337;BME280;54510;42.016;23.098;2023-01-09T10:07:46;-21467.59;;;12.11;58.29
7337;BME280;54510;42.016;23.098;2023-01-09T10:10:41;-21475.22;;;12.39;57.71
7337;BME280;54510;42.016;23.098;2023-01-09T10:13:17;-21480.06;;;12.57;57.44
7337;BME280;54510;42.016;23.098;2023-01-09T10:26:47;-21507.72;;;13.58;53.13
7337;BME280;54510;42.016;23.098;2023-01-09T10:32:02;-21513.69;;;13.80;52.20
7337;BME280;54510;42.016;23.098;2023-01-09T10:37:22;-21523.50;;;14.16;51.65
7337;BME280;54510;42.016;23.098;2023-01-09T10:42:31;-21516.59;;;13.91;53.00
7337;BME280;54510;42.016;23.098;2023-01-09T10:47:48;-21515.19;;;13.85;54.09
7337;BME280;54510;42.016;23.098;2023-01-09T10:50:27;-21510.78;;;13.69;53.79
7337;BME280;54510;42.016;23.098;2023-01-09T10:52:55;-21514.22;;;13.82;53.68
7337;BME280;54510;42.016;23.098;2023-01-09T10:55:34;-21522.41;;;14.12;52.28
7337;BME280;54510;42.016;23.098;2023-01-09T10:58:10;-21525.97;;;14.25;51.19
7337;BME280;54510;42.016;23.098;2023-01-09T11:00:37;-21531.78;;;14.46;50.44
7337;BME280;54510;42.016;23.098;2023-01-09T11:03:03;-21538.41;;;14.71;50.11
7337;BME280;54510;42.016;23.098;2023-01-09T11:05:29;-21546.03;;;14.98;49.53
7337;BME280;54510;42.016;23.098;2023-01-09T11:08:10;-21542.56;;;14.86;49.21
7337;BME280;54510;42.016;23.098;2023-01-09T11:13:27;-21545.03;;;14.95;49.11
7337;BME280;54510;42.016;23.098;2023-01-09T11:18:37;-21540.34;;;14.78;49.44
7337;BME280;54510;42.016;23.098;2023-01-09T11:23:55;-21543.66;;;14.90;48.81
7337;BME280;54510;42.016;23.098;2023-01-09T11:26:23;-21544.50;;;14.93;48.36
7337;BME280;54510;42.016;23.098;2023-01-09T11:29:06;-21542.44;;;14.85;48.31
7337;BME280;54510;42.016;23.098;2023-01-09T11:31:32;-21545.59;;;14.97;48.11
7337;BME280;54510;42.016;23.098;2023-01-09T11:33:58;-21549.06;;;15.10;48.49
7337;BME280;54510;42.016;23.098;2023-01-09T11:36:23;-21548.09;;;15.06;48.36
7337;BME280;54510;42.016;23.098;2023-01-09T11:38:52;-21545.03;;;14.95;48.11
7337;BME280;54510;42.016;23.098;2023-01-09T11:41:30;-21543.66;;;14.90;48.22
7337;BME280;54510;42.016;23.098;2023-01-09T11:43:57;-21546.97;;;15.02;47.44
7337;BME280;54510;42.016;23.098;2023-01-09T11:46:36;-21547.69;;;15.05;48.35
7337;BME280;54510;42.016;23.098;2023-01-09T11:49:04;-21551.25;;;15.18;48.15
7337;BME280;54510;42.016;23.098;2023-01-09T11:51:34;-21548.91;;;15.09;48.21
7337;BME280;54510;42.016;23.098;2023-01-09T11:54:26;-21545.88;;;14.98;48.76
7337;BME280;54510;42.016;23.098;2023-01-09T11:56:53;-21542.28;;;14.85;49.56
7337;BME280;54510;42.016;23.098;2023-01-09T11:59:26;-21538.28;;;14.70;50.16
7337;BME280;54510;42.016;23.098;2023-01-09T12:10:46;-21538.41;;;14.71;50.23
7337;BME280;54510;42.016;23.098;2023-01-09T12:13:32;-21540.06;;;14.77;50.17
7337;BME280;54510;42.016;23.098;2023-01-09T12:21:43;-21527.91;;;14.32;51.24
7337;BME280;54510;42.016;23.098;2023-01-09T12:24:19;-21534.56;;;14.56;50.42
7337;BME280;54510;42.016;23.098;2023-01-09T12:35:06;-21535.94;;;14.61;50.57
7337;BME280;54510;42.016;23.098;2023-01-09T12:44:05;-21540.06;;;14.77;50.66
7337;BME280;54510;42.016;23.098;2023-01-09T12:49:38;-21536.22;;;14.62;51.05
7337;BME280;54510;42.016;23.098;2023-01-09T12:52:30;-21535.94;;;14.61;51.26
7337;BME280;54510;42.016;23.098;2023-01-09T12:55:26;-21530.97;;;14.43;51.45
7337;BME280;54510;42.016;23.098;2023-01-09T12:57:58;-21527.91;;;14.32;51.99
7337;BME280;54510;42.016;23.098;2023-01-09T13:00:41;-21529.03;;;14.36;51.79
7337;BME280;54510;42.016;23.098;2023-01-09T13:03:16;-21525.44;;;14.23;52.32
7337;BME280;54510;42.016;23.098;2023-01-09T13:05:48;-21526.53;;;14.27;52.04
7337;BME280;54510;42.016;23.098;2023-01-09T13:08:29;-21522.41;;;14.12;52.70
7337;BME280;54510;42.016;23.098;2023-01-09T13:14:10;-21528.34;;;14.34;52.44
7337;BME280;54510;42.016;23.098;2023-01-09T13:16:39;-21522.94;;;14.14;52.38
7337;BME280;54510;42.016;23.098;2023-01-09T13:19:16;-21524.88;;;14.21;52.21
7337;BME280;54510;42.016;23.098;2023-01-09T13:21:43;-21529.44;;;14.38;51.99
7337;BME280;54510;42.016;23.098;2023-01-09T13:26:58;-21524.31;;;14.19;51.84
7337;BME280;54510;42.016;23.098;2023-01-09T13:29:30;-21524.59;;;14.20;51.65
7337;BME280;54510;42.016;23.098;2023-01-09T13:34:49;-21519.50;;;14.01;51.96
7337;BME280;54510;42.016;23.098;2023-01-09T13:37:22;-21525.44;;;14.23;51.24
7337;BME280;54510;42.016;23.098;2023-01-09T13:40:00;-21528.59;;;14.35;51.05
7337;BME280;54510;42.016;23.098;2023-01-09T13:42:26;-21520.31;;;14.04;51.14
7337;BME280;54510;42.016;23.098;2023-01-09T13:45:20;-21519.63;;;14.02;51.62
7337;BME280;54510;42.016;23.098;2023-01-09T13:50:43;-21514.94;;;13.84;52.13
7337;BME280;54510;42.016;23.098;2023-01-09T13:58:29;-21510.78;;;13.69;52.93
7337;BME280;54510;42.016;23.098;2023-01-09T14:01:39;-21513.25;;;13.78;52.51
7337;BME280;54510;42.016;23.098;2023-01-09T14:06:41;-21506.91;;;13.55;53.93
7337;BME280;54510;42.016;23.098;2023-01-09T14:09:27;-21503.03;;;13.41;54.57
7337;BME280;54510;42.016;23.098;2023-01-09T14:12:02;-21496.41;;;13.17;55.78
7337;BME280;54510;42.016;23.098;2023-01-09T14:14:30;-21495.84;;;13.15;56.12
7337;BME280;54510;42.016;23.098;2023-01-09T14:16:57;-21495.69;;;13.14;56.80
7337;BME280;54510;42.016;23.098;2023-01-09T14:19:36;-21495.84;;;13.15;57.03
7337;BME280;54510;42.016;23.098;2023-01-09T14:22:03;-21491.69;;;12.99;57.44
7337;BME280;54510;42.016;23.098;2023-01-09T14:26:59;-21485.72;;;12.78;58.82
7337;BME280;54510;42.016;23.098;2023-01-09T14:32:40;-21487.66;;;12.85;59.21
7337;BME280;54510;42.016;23.098;2023-01-09T14:37:35;-21484.75;;;12.74;59.80
7337;BME280;54510;42.016;23.098;2023-01-09T14:40:02;-21478.94;;;12.53;60.39
7337;BME280;54510;42.016;23.098;2023-01-09T14:42:31;-21477.41;;;12.47;61.05
7337;BME280;54510;42.016;23.098;2023-01-09T14:45:18;-21481.56;;;12.62;60.58
7337;BME280;54510;42.016;23.098;2023-01-09T14:47:47;-21479.22;;;12.54;60.94
7337;BME280;54510;42.016;23.098;2023-01-09T14:50:28;-21481.31;;;12.61;61.02
7337;BME280;54510;42.016;23.098;2023-01-09T14:53:03;-21481.31;;;12.61;60.66
7337;BME280;54510;42.016;23.098;2023-01-09T14:55:56;-21476.59;;;12.44;61.24
7337;BME280;54510;42.016;23.098;2023-01-09T14:58:33;-21473.25;;;12.32;61.71
7337;BME280;54510;42.016;23.098;2023-01-09T15:03:51;-21468.28;;;12.14;62.45
7337;BME280;54510;42.016;23.098;2023-01-09T15:06:23;-21468.13;;;12.13;62.76